Ewing, Virginia
Current Conditions -  °F | °C
As of 11:15 AM on Wednesday 22 Oct 2014 (Local Time) from K0VG Reporting Station
Clear Clear  
Wind Chill: 50°   Ceiling: Unl
Heat Index: 50°   Visibility: 10mi
Dew Point: 37°   Wind: 5mph
Humidity: 62%   Direction: 300°WNW
Pressure: 30.24"   Gusts: NA
Location:  36.64°N, 83.43°W
Report Text: K0VG 221515Z AUTO 30004KT 10SM CLR 10/03 A3024 RMK AO2
Loading
Personal Weather Stations






























Interactive Weather Map
Tropical Storm Tracking
New forecast layout! Learn more

10-Day Weather Forecast

Advertisements
Track Severe Weather on mobile